sensor_id;sensor_type;location;lat;lon;timestamp;temperature;humidity
7192;DHT22;3637;51.494;11.958;2022-09-16T00:00:42;14.10;99.90
7192;DHT22;3637;51.494;11.958;2022-09-16T00:03:45;14.10;99.90
7192;DHT22;3637;51.494;11.958;2022-09-16T00:06:47;14.00;99.90
7192;DHT22;3637;51.494;11.958;2022-09-16T00:09:50;13.90;99.90
7192;DHT22;3637;51.494;11.958;2022-09-16T00:12:52;14.00;99.90
7192;DHT22;3637;51.494;11.958;2022-09-16T00:15:53;13.90;99.90
7192;DHT22;3637;51.494;11.958;2022-09-16T00:18:57;14.00;99.90
7192;DHT22;3637;51.494;11.958;2022-09-16T00:21:59;14.00;99.90
7192;DHT22;3637;51.494;11.958;2022-09-16T00:25:02;14.00;99.90
7192;DHT22;3637;51.494;11.958;2022-09-16T00:28:04;14.00;99.90
7192;DHT22;3637;51.494;11.958;2022-09-16T00:31:06;13.90;99.90
7192;DHT22;3637;51.494;11.958;2022-09-16T00:34:07;13.90;99.90
7192;DHT22;3637;51.494;11.958;2022-09-16T00:37:09;13.90;99.90
7192;DHT22;3637;51.494;11.958;2022-09-16T00:40:12;13.90;99.90
7192;DHT22;3637;51.494;11.958;2022-09-16T00:43:15;13.90;99.90
7192;DHT22;3637;51.494;11.958;2022-09-16T00:46:20;13.80;99.90
7192;DHT22;3637;51.494;11.958;2022-09-16T00:49:25;13.80;99.90
7192;DHT22;3637;51.494;11.958;2022-09-16T00:52:30;13.80;99.90
7192;DHT22;3637;51.494;11.958;2022-09-16T00:55:36;13.70;99.90
7192;DHT22;3637;51.494;11.958;2022-09-16T00:58:43;13.70;99.90
7192;DHT22;3637;51.494;11.958;2022-09-16T01:01:47;13.80;99.90
7192;DHT22;3637;51.494;11.958;2022-09-16T01:04:52;13.70;99.90
7192;DHT22;3637;51.494;11.958;2022-09-16T01:07:55;13.70;99.90
7192;DHT22;3637;51.494;11.958;2022-09-16T01:10:59;13.70;99.90
7192;DHT22;3637;51.494;11.958;2022-09-16T01:14:01;13.60;99.90
7192;DHT22;3637;51.494;11.958;2022-09-16T01:17:25;13.60;99.90
7192;DHT22;3637;51.494;11.958;2022-09-16T01:21:12;13.60;99.90
7192;DHT22;3637;51.494;11.958;2022-09-16T01:24:37;13.50;99.90
7192;DHT22;3637;51.494;11.958;2022-09-16T01:28:07;13.60;99.90
7192;DHT22;3637;51.494;11.958;2022-09-16T01:31:15;13.50;99.90
7192;DHT22;3637;51.494;11.958;2022-09-16T01:34:25;13.50;99.90
7192;DHT22;3637;51.494;11.958;2022-09-16T01:37:46;13.50;99.90
7192;DHT22;3637;51.494;11.958;2022-09-16T01:40:55;13.50;99.90
7192;DHT22;3637;51.494;11.958;2022-09-16T01:44:02;13.50;99.90
7192;DHT22;3637;51.494;11.958;2022-09-16T01:47:12;13.40;99.90
7192;DHT22;3637;51.494;11.958;2022-09-16T01:50:19;13.40;99.90
7192;DHT22;3637;51.494;11.958;2022-09-16T01:53:26;13.40;99.90
7192;DHT22;3637;51.494;11.958;2022-09-16T01:56:33;13.40;99.90
7192;DHT22;3637;51.494;11.958;2022-09-16T01:59:41;13.30;99.90
7192;DHT22;3637;51.494;11.958;2022-09-16T02:02:48;13.40;99.90
7192;DHT22;3637;51.494;11.958;2022-09-16T02:05:55;13.30;99.90
7192;DHT22;3637;51.494;11.958;2022-09-16T02:09:01;13.30;99.90
7192;DHT22;3637;51.494;11.958;2022-09-16T02:12:08;13.30;99.90
7192;DHT22;3637;51.494;11.958;2022-09-16T02:15:15;13.30;99.90
7192;DHT22;3637;51.494;11.958;2022-09-16T02:18:26;13.40;99.90
7192;DHT22;3637;51.494;11.958;2022-09-16T02:21:31;13.30;99.90
7192;DHT22;3637;51.494;11.958;2022-09-16T02:24:36;13.30;99.90
7192;DHT22;3637;51.494;11.958;2022-09-16T02:27:41;13.30;99.90
7192;DHT22;3637;51.494;11.958;2022-09-16T02:30:47;13.30;99.90
7192;DHT22;3637;51.494;11.958;2022-09-16T02:33:55;13.30;99.90
7192;DHT22;3637;51.494;11.958;2022-09-16T02:37:03;13.30;99.90
7192;DHT22;3637;51.494;11.958;2022-09-16T02:40:11;13.20;99.90
7192;DHT22;3637;51.494;11.958;2022-09-16T02:43:14;13.20;99.90
7192;DHT22;3637;51.494;11.958;2022-09-16T02:46:23;13.10;99.90
7192;DHT22;3637;51.494;11.958;2022-09-16T02:49:32;13.10;99.90
7192;DHT22;3637;51.494;11.958;2022-09-16T02:52:46;13.10;99.90
7192;DHT22;3637;51.494;11.958;2022-09-16T02:55:53;13.20;99.90
7192;DHT22;3637;51.494;11.958;2022-09-16T02:58:57;13.10;99.90
7192;DHT22;3637;51.494;11.958;2022-09-16T03:01:59;13.10;99.90
7192;DHT22;3637;51.494;11.958;2022-09-16T03:05:04;13.00;99.90
7192;DHT22;3637;51.494;11.958;2022-09-16T03:08:06;13.10;99.90
7192;DHT22;3637;51.494;11.958;2022-09-16T03:11:15;13.10;99.90
7192;DHT22;3637;51.494;11.958;2022-09-16T03:14:41;13.10;99.90
7192;DHT22;3637;51.494;11.958;2022-09-16T03:17:59;13.00;99.90
7192;DHT22;3637;51.494;11.958;2022-09-16T03:21:10;13.00;99.90
7192;DHT22;3637;51.494;11.958;2022-09-16T03:24:23;13.00;99.90
7192;DHT22;3637;51.494;11.958;2022-09-16T03:27:31;13.00;99.90
7192;DHT22;3637;51.494;11.958;2022-09-16T03:30:39;13.00;99.90
7192;DHT22;3637;51.494;11.958;2022-09-16T03:33:48;12.90;99.90
7192;DHT22;3637;51.494;11.958;2022-09-16T03:36:57;13.00;99.90
7192;DHT22;3637;51.494;11.958;2022-09-16T03:40:03;12.90;99.90
7192;DHT22;3637;51.494;11.958;2022-09-16T03:43:09;12.90;99.90
7192;DHT22;3637;51.494;11.958;2022-09-16T03:46:12;12.90;99.90
7192;DHT22;3637;51.494;11.958;2022-09-16T03:49:14;12.90;99.90
7192;DHT22;3637;51.494;11.958;2022-09-16T03:52:17;12.90;99.90
7192;DHT22;3637;51.494;11.958;2022-09-16T03:55:19;12.80;99.90
7192;DHT22;3637;51.494;11.958;2022-09-16T03:58:21;12.80;99.90
7192;DHT22;3637;51.494;11.958;2022-09-16T04:01:22;12.80;99.90
7192;DHT22;3637;51.494;11.958;2022-09-16T04:04:24;12.80;99.90
7192;DHT22;3637;51.494;11.958;2022-09-16T04:07:27;12.70;99.90
7192;DHT22;3637;51.494;11.958;2022-09-16T04:10:29;12.70;99.90
7192;DHT22;3637;51.494;11.958;2022-09-16T04:13:32;12.70;99.90
7192;DHT22;3637;51.494;11.958;2022-09-16T04:16:34;12.70;99.90
7192;DHT22;3637;51.494;11.958;2022-09-16T04:19:36;12.70;99.90
7192;DHT22;3637;51.494;11.958;2022-09-16T04:22:39;12.80;99.90
7192;DHT22;3637;51.494;11.958;2022-09-16T04:25:41;12.80;99.90
7192;DHT22;3637;51.494;11.958;2022-09-16T04:28:43;12.80;99.90
7192;DHT22;3637;51.494;11.958;2022-09-16T04:31:44;12.70;99.90
7192;DHT22;3637;51.494;11.958;2022-09-16T04:34:46;12.70;99.90
7192;DHT22;3637;51.494;11.958;2022-09-16T04:37:50;12.70;99.90
7192;DHT22;3637;51.494;11.958;2022-09-16T04:40:52;12.70;99.90
7192;DHT22;3637;51.494;11.958;2022-09-16T04:43:56;12.70;99.90
7192;DHT22;3637;51.494;11.958;2022-09-16T04:46:58;12.70;99.90
7192;DHT22;3637;51.494;11.958;2022-09-16T04:50:00;12.70;99.90
7192;DHT22;3637;51.494;11.958;2022-09-16T04:53:03;12.70;99.90
7192;DHT22;3637;51.494;11.958;2022-09-16T04:56:06;12.70;99.90
7192;DHT22;3637;51.494;11.958;2022-09-16T04:59:09;12.70;99.90
7192;DHT22;3637;51.494;11.958;2022-09-16T05:02:10;12.70;99.90
7192;DHT22;3637;51.494;11.958;2022-09-16T05:05:12;12.70;99.90
7192;DHT22;3637;51.494;11.958;2022-09-16T05:08:17;12.70;99.90
7192;DHT22;3637;51.494;11.958;2022-09-16T05:11:21;12.70;99.90
7192;DHT22;3637;51.494;11.958;2022-09-16T05:14:23;12.70;99.90
7192;DHT22;3637;51.494;11.958;2022-09-16T05:17:25;12.60;99.90
7192;DHT22;3637;51.494;11.958;2022-09-16T05:20:26;12.70;99.90
7192;DHT22;3637;51.494;11.958;2022-09-16T05:23:30;12.80;99.90
7192;DHT22;3637;51.494;11.958;2022-09-16T05:26:32;12.80;99.90
7192;DHT22;3637;51.494;11.958;2022-09-16T05:29:34;12.90;99.90
7192;DHT22;3637;51.494;11.958;2022-09-16T05:32:36;12.80;99.90
7192;DHT22;3637;51.494;11.958;2022-09-16T05:35:38;12.80;99.90
7192;DHT22;3637;51.494;11.958;2022-09-16T05:38:43;12.80;99.90
7192;DHT22;3637;51.494;11.958;2022-09-16T05:41:45;12.80;99.90
7192;DHT22;3637;51.494;11.958;2022-09-16T05:44:47;12.90;99.90
7192;DHT22;3637;51.494;11.958;2022-09-16T05:47:49;12.90;99.90
7192;DHT22;3637;51.494;11.958;2022-09-16T05:50:52;13.00;99.90
7192;DHT22;3637;51.494;11.958;2022-09-16T05:53:55;13.00;99.90
7192;DHT22;3637;51.494;11.958;2022-09-16T05:56:57;13.10;99.90
7192;DHT22;3637;51.494;11.958;2022-09-16T05:59:58;13.10;99.90
7192;DHT22;3637;51.494;11.958;2022-09-16T06:03:00;13.10;99.90
7192;DHT22;3637;51.494;11.958;2022-09-16T06:06:03;13.20;99.90
7192;DHT22;3637;51.494;11.958;2022-09-16T06:09:09;13.20;99.90
7192;DHT22;3637;51.494;11.958;2022-09-16T06:12:11;13.20;99.90
7192;DHT22;3637;51.494;11.958;2022-09-16T06:15:13;13.40;99.90
7192;DHT22;3637;51.494;11.958;2022-09-16T06:18:14;13.50;99.90
7192;DHT22;3637;51.494;11.958;2022-09-16T06:21:16;13.50;99.90
7192;DHT22;3637;51.494;11.958;2022-09-16T06:24:19;13.50;99.90
7192;DHT22;3637;51.494;11.958;2022-09-16T06:27:21;13.60;99.90
7192;DHT22;3637;51.494;11.958;2022-09-16T06:30:23;13.60;99.90
7192;DHT22;3637;51.494;11.958;2022-09-16T06:33:26;13.70;99.90
7192;DHT22;3637;51.494;11.958;2022-09-16T06:36:29;13.70;99.90
7192;DHT22;3637;51.494;11.958;2022-09-16T06:39:32;13.80;99.90
7192;DHT22;3637;51.494;11.958;2022-09-16T06:42:35;13.90;99.90
7192;DHT22;3637;51.494;11.958;2022-09-16T06:45:37;13.80;99.50
7192;DHT22;3637;51.494;11.958;2022-09-16T06:48:39;13.80;99.20
7192;DHT22;3637;51.494;11.958;2022-09-16T06:51:41;13.80;99.60
7192;DHT22;3637;51.494;11.958;2022-09-16T06:54:44;13.80;99.00
7192;DHT22;3637;51.494;11.958;2022-09-16T06:57:47;13.90;98.80
7192;DHT22;3637;51.494;11.958;2022-09-16T07:00:49;13.90;98.70
7192;DHT22;3637;51.494;11.958;2022-09-16T07:03:52;13.70;99.10
7192;DHT22;3637;51.494;11.958;2022-09-16T07:06:54;13.80;99.20
7192;DHT22;3637;51.494;11.958;2022-09-16T07:09:58;13.80;98.70
7192;DHT22;3637;51.494;11.958;2022-09-16T07:13:00;13.80;98.70
7192;DHT22;3637;51.494;11.958;2022-09-16T07:16:03;13.80;98.60
7192;DHT22;3637;51.494;11.958;2022-09-16T07:19:05;13.80;98.60
7192;DHT22;3637;51.494;11.958;2022-09-16T07:22:07;13.70;98.70
7192;DHT22;3637;51.494;11.958;2022-09-16T07:25:12;13.70;98.60
7192;DHT22;3637;51.494;11.958;2022-09-16T07:28:13;13.70;98.90
7192;DHT22;3637;51.494;11.958;2022-09-16T07:31:17;13.80;99.10
7192;DHT22;3637;51.494;11.958;2022-09-16T07:34:19;13.70;98.80
7192;DHT22;3637;51.494;11.958;2022-09-16T07:37:20;13.80;98.80
7192;DHT22;3637;51.494;11.958;2022-09-16T07:40:24;13.90;99.10
7192;DHT22;3637;51.494;11.958;2022-09-16T07:43:26;14.00;99.00
7192;DHT22;3637;51.494;11.958;2022-09-16T07:46:30;14.20;98.30
7192;DHT22;3637;51.494;11.958;2022-09-16T07:49:32;14.30;97.80
7192;DHT22;3637;51.494;11.958;2022-09-16T07:52:33;14.30;97.30
7192;DHT22;3637;51.494;11.958;2022-09-16T07:55:36;14.50;97.60
7192;DHT22;3637;51.494;11.958;2022-09-16T07:58:39;14.50;97.30
7192;DHT22;3637;51.494;11.958;2022-09-16T08:01:40;14.60;96.80
7192;DHT22;3637;51.494;11.958;2022-09-16T08:04:42;14.90;96.50
7192;DHT22;3637;51.494;11.958;2022-09-16T08:07:44;14.90;95.90
7192;DHT22;3637;51.494;11.958;2022-09-16T08:10:53;14.90;95.50
7192;DHT22;3637;51.494;11.958;2022-09-16T08:13:57;15.00;95.70
7192;DHT22;3637;51.494;11.958;2022-09-16T08:16:59;15.00;95.30
7192;DHT22;3637;51.494;11.958;2022-09-16T08:20:01;15.00;95.70
7192;DHT22;3637;51.494;11.958;2022-09-16T08:23:06;14.90;95.60
7192;DHT22;3637;51.494;11.958;2022-09-16T08:26:10;14.90;95.70
7192;DHT22;3637;51.494;11.958;2022-09-16T08:29:13;14.80;95.50
7192;DHT22;3637;51.494;11.958;2022-09-16T08:32:14;14.80;96.20
7192;DHT22;3637;51.494;11.958;2022-09-16T08:35:16;14.70;95.80
7192;DHT22;3637;51.494;11.958;2022-09-16T08:38:19;14.70;96.20
7192;DHT22;3637;51.494;11.958;2022-09-16T08:41:32;14.80;95.40
7192;DHT22;3637;51.494;11.958;2022-09-16T08:44:41;14.90;94.90
7192;DHT22;3637;51.494;11.958;2022-09-16T08:47:54;14.90;94.20
7192;DHT22;3637;51.494;11.958;2022-09-16T08:51:03;14.80;94.80
7192;DHT22;3637;51.494;11.958;2022-09-16T08:54:10;14.80;96.90
7192;DHT22;3637;51.494;11.958;2022-09-16T08:57:17;14.70;98.30
7192;DHT22;3637;51.494;11.958;2022-09-16T09:00:20;14.60;98.90
7192;DHT22;3637;51.494;11.958;2022-09-16T09:03:30;14.60;99.60
7192;DHT22;3637;51.494;11.958;2022-09-16T09:06:48;14.60;99.30
7192;DHT22;3637;51.494;11.958;2022-09-16T09:10:00;14.60;99.60
7192;DHT22;3637;51.494;11.958;2022-09-16T09:13:10;14.40;99.90
7192;DHT22;3637;51.494;11.958;2022-09-16T09:16:21;14.30;99.90
7192;DHT22;3637;51.494;11.958;2022-09-16T09:19:36;14.30;99.90
7192;DHT22;3637;51.494;11.958;2022-09-16T09:22:58;14.30;99.90
7192;DHT22;3637;51.494;11.958;2022-09-16T09:26:05;14.20;99.90
7192;DHT22;3637;51.494;11.958;2022-09-16T09:29:24;14.20;99.90
7192;DHT22;3637;51.494;11.958;2022-09-16T09:32:38;14.40;99.90
7192;DHT22;3637;51.494;11.958;2022-09-16T09:35:55;14.50;99.90
7192;DHT22;3637;51.494;11.958;2022-09-16T09:42:26;14.60;99.90
7192;DHT22;3637;51.494;11.958;2022-09-16T09:45:32;14.80;99.70
7192;DHT22;3637;51.494;11.958;2022-09-16T09:48:37;14.90;97.30
7192;DHT22;3637;51.494;11.958;2022-09-16T09:51:43;15.00;98.00
7192;DHT22;3637;51.494;11.958;2022-09-16T09:54:48;15.10;97.60
7192;DHT22;3637;51.494;11.958;2022-09-16T09:57:59;15.20;95.50
7192;DHT22;3637;51.494;11.958;2022-09-16T10:01:03;15.40;95.60
7192;DHT22;3637;51.494;11.958;2022-09-16T10:04:09;15.50;95.60
7192;DHT22;3637;51.494;11.958;2022-09-16T10:07:14;15.60;94.40
7192;DHT22;3637;51.494;11.958;2022-09-16T10:10:19;15.60;93.20
7192;DHT22;3637;51.494;11.958;2022-09-16T10:13:23;15.60;93.20
7192;DHT22;3637;51.494;11.958;2022-09-16T10:16:29;15.80;92.00
7192;DHT22;3637;51.494;11.958;2022-09-16T10:19:37;15.80;91.60
7192;DHT22;3637;51.494;11.958;2022-09-16T10:22:40;15.90;91.50
7192;DHT22;3637;51.494;11.958;2022-09-16T10:25:42;15.70;91.20
7192;DHT22;3637;51.494;11.958;2022-09-16T10:28:56;16.00;91.90
7192;DHT22;3637;51.494;11.958;2022-09-16T10:32:04;16.20;91.50
7192;DHT22;3637;51.494;11.958;2022-09-16T10:35:07;16.30;89.90
7192;DHT22;3637;51.494;11.958;2022-09-16T10:38:17;16.40;90.60
7192;DHT22;3637;51.494;11.958;2022-09-16T10:41:21;16.50;91.40
7192;DHT22;3637;51.494;11.958;2022-09-16T10:44:26;16.50;88.50
7192;DHT22;3637;51.494;11.958;2022-09-16T10:47:31;16.50;87.10
7192;DHT22;3637;51.494;11.958;2022-09-16T10:50:35;16.50;86.40
7192;DHT22;3637;51.494;11.958;2022-09-16T10:53:38;16.60;83.20
7192;DHT22;3637;51.494;11.958;2022-09-16T10:56:48;16.60;84.30
7192;DHT22;3637;51.494;11.958;2022-09-16T10:59:59;16.80;84.40
7192;DHT22;3637;51.494;11.958;2022-09-16T11:06:57;16.90;83.70
7192;DHT22;3637;51.494;11.958;2022-09-16T11:10:09;16.90;86.30
7192;DHT22;3637;51.494;11.958;2022-09-16T11:13:24;16.80;85.50
7192;DHT22;3637;51.494;11.958;2022-09-16T11:16:43;16.80;84.10
7192;DHT22;3637;51.494;11.958;2022-09-16T11:20:03;16.80;83.90
7192;DHT22;3637;51.494;11.958;2022-09-16T11:23:15;17.00;84.80
7192;DHT22;3637;51.494;11.958;2022-09-16T11:26:26;17.10;80.80
7192;DHT22;3637;51.494;11.958;2022-09-16T11:29:45;17.10;80.60
7192;DHT22;3637;51.494;11.958;2022-09-16T11:33:05;17.10;80.70
7192;DHT22;3637;51.494;11.958;2022-09-16T11:36:20;16.80;80.70
7192;DHT22;3637;51.494;11.958;2022-09-16T11:39:39;16.50;83.00
7192;DHT22;3637;51.494;11.958;2022-09-16T11:42:50;16.30;84.70
7192;DHT22;3637;51.494;11.958;2022-09-16T11:45:59;16.10;82.20
7192;DHT22;3637;51.494;11.958;2022-09-16T11:49:15;15.90;84.00
7192;DHT22;3637;51.494;11.958;2022-09-16T11:52:30;15.70;84.40
7192;DHT22;3637;51.494;11.958;2022-09-16T11:55:44;15.90;85.20
7192;DHT22;3637;51.494;11.958;2022-09-16T11:58:50;15.90;84.20
7192;DHT22;3637;51.494;11.958;2022-09-16T12:01:56;16.00;83.70
7192;DHT22;3637;51.494;11.958;2022-09-16T12:05:05;16.00;83.50
7192;DHT22;3637;51.494;11.958;2022-09-16T12:08:18;16.10;84.10
7192;DHT22;3637;51.494;11.958;2022-09-16T12:11:25;16.20;83.40
7192;DHT22;3637;51.494;11.958;2022-09-16T12:14:35;16.30;84.50
7192;DHT22;3637;51.494;11.958;2022-09-16T12:17:39;16.30;84.00
7192;DHT22;3637;51.494;11.958;2022-09-16T12:20:45;16.40;84.10
7192;DHT22;3637;51.494;11.958;2022-09-16T12:23:52;16.50;83.80
7192;DHT22;3637;51.494;11.958;2022-09-16T12:27:03;16.50;83.10
7192;DHT22;3637;51.494;11.958;2022-09-16T12:30:13;16.60;82.90
7192;DHT22;3637;51.494;11.958;2022-09-16T12:33:18;16.60;83.20
7192;DHT22;3637;51.494;11.958;2022-09-16T12:36:24;16.70;82.50
7192;DHT22;3637;51.494;11.958;2022-09-16T12:39:29;16.70;83.40
7192;DHT22;3637;51.494;11.958;2022-09-16T12:43:09;16.80;83.30
7192;DHT22;3637;51.494;11.958;2022-09-16T12:46:33;17.00;83.90
7192;DHT22;3637;51.494;11.958;2022-09-16T12:50:12;17.10;82.80
7192;DHT22;3637;51.494;11.958;2022-09-16T12:57:17;17.30;81.80
7192;DHT22;3637;51.494;11.958;2022-09-16T13:00:23;17.20;82.20
7192;DHT22;3637;51.494;11.958;2022-09-16T13:03:29;17.20;81.60
7192;DHT22;3637;51.494;11.958;2022-09-16T13:06:34;17.30;81.50
7192;DHT22;3637;51.494;11.958;2022-09-16T13:09:38;17.40;79.80
7192;DHT22;3637;51.494;11.958;2022-09-16T13:12:48;17.50;79.00
7192;DHT22;3637;51.494;11.958;2022-09-16T13:15:55;17.30;77.70
7192;DHT22;3637;51.494;11.958;2022-09-16T13:19:23;17.30;78.70
7192;DHT22;3637;51.494;11.958;2022-09-16T13:22:28;17.30;79.70
7192;DHT22;3637;51.494;11.958;2022-09-16T13:25:34;17.20;79.30
7192;DHT22;3637;51.494;11.958;2022-09-16T13:28:45;17.10;80.60
7192;DHT22;3637;51.494;11.958;2022-09-16T13:31:50;17.30;80.60
7192;DHT22;3637;51.494;11.958;2022-09-16T13:35:03;17.20;79.70
7192;DHT22;3637;51.494;11.958;2022-09-16T13:38:22;17.10;80.20
7192;DHT22;3637;51.494;11.958;2022-09-16T13:41:29;17.30;81.30
7192;DHT22;3637;51.494;11.958;2022-09-16T13:44:41;17.30;78.00
7192;DHT22;3637;51.494;11.958;2022-09-16T13:47:48;17.30;76.50
7192;DHT22;3637;51.494;11.958;2022-09-16T13:50:51;17.40;77.70
7192;DHT22;3637;51.494;11.958;2022-09-16T13:53:54;17.40;75.30
7192;DHT22;3637;51.494;11.958;2022-09-16T13:57:17;17.30;69.30
7192;DHT22;3637;51.494;11.958;2022-09-16T14:00:23;17.30;69.30
7192;DHT22;3637;51.494;11.958;2022-09-16T14:03:37;17.30;69.80
7192;DHT22;3637;51.494;11.958;2022-09-16T14:07:09;17.40;70.00
7192;DHT22;3637;51.494;11.958;2022-09-16T14:10:18;17.40;69.40
7192;DHT22;3637;51.494;11.958;2022-09-16T14:13:23;17.40;70.10
7192;DHT22;3637;51.494;11.958;2022-09-16T14:16:28;17.40;70.80
7192;DHT22;3637;51.494;11.958;2022-09-16T14:19:33;17.40;71.50
7192;DHT22;3637;51.494;11.958;2022-09-16T14:22:37;17.40;70.30
7192;DHT22;3637;51.494;11.958;2022-09-16T14:25:43;17.50;71.70
7192;DHT22;3637;51.494;11.958;2022-09-16T14:28:45;17.60;71.90
7192;DHT22;3637;51.494;11.958;2022-09-16T14:31:51;17.60;71.20
7192;DHT22;3637;51.494;11.958;2022-09-16T14:34:55;17.60;71.10
7192;DHT22;3637;51.494;11.958;2022-09-16T14:38:00;17.50;71.70
7192;DHT22;3637;51.494;11.958;2022-09-16T14:41:05;17.50;71.60
7192;DHT22;3637;51.494;11.958;2022-09-16T14:44:11;17.60;73.00
7192;DHT22;3637;51.494;11.958;2022-09-16T14:47:20;17.50;73.90
7192;DHT22;3637;51.494;11.958;2022-09-16T14:50:27;17.50;73.30
7192;DHT22;3637;51.494;11.958;2022-09-16T14:53:32;17.40;72.70
7192;DHT22;3637;51.494;11.958;2022-09-16T14:56:35;17.40;74.40
7192;DHT22;3637;51.494;11.958;2022-09-16T14:59:38;17.40;70.50
7192;DHT22;3637;51.494;11.958;2022-09-16T15:02:46;17.40;69.90
7192;DHT22;3637;51.494;11.958;2022-09-16T15:05:49;17.30;68.40
7192;DHT22;3637;51.494;11.958;2022-09-16T15:08:56;17.30;68.70
7192;DHT22;3637;51.494;11.958;2022-09-16T15:12:00;17.30;70.00
7192;DHT22;3637;51.494;11.958;2022-09-16T15:15:03;17.30;68.60
7192;DHT22;3637;51.494;11.958;2022-09-16T15:18:11;17.30;66.40
7192;DHT22;3637;51.494;11.958;2022-09-16T15:21:22;17.30;67.20
7192;DHT22;3637;51.494;11.958;2022-09-16T15:24:28;17.30;66.50
7192;DHT22;3637;51.494;11.958;2022-09-16T15:27:30;17.30;67.50
7192;DHT22;3637;51.494;11.958;2022-09-16T15:30:33;17.20;66.70
7192;DHT22;3637;51.494;11.958;2022-09-16T15:33:40;17.30;66.90
7192;DHT22;3637;51.494;11.958;2022-09-16T15:36:42;17.40;67.20
7192;DHT22;3637;51.494;11.958;2022-09-16T15:39:44;17.30;66.40
7192;DHT22;3637;51.494;11.958;2022-09-16T15:42:46;17.30;67.50
7192;DHT22;3637;51.494;11.958;2022-09-16T15:45:57;17.30;65.40
7192;DHT22;3637;51.494;11.958;2022-09-16T15:49:01;17.30;65.60
7192;DHT22;3637;51.494;11.958;2022-09-16T15:52:07;17.20;66.40
7192;DHT22;3637;51.494;11.958;2022-09-16T15:55:11;17.20;67.30
7192;DHT22;3637;51.494;11.958;2022-09-16T15:58:16;17.20;66.30
7192;DHT22;3637;51.494;11.958;2022-09-16T16:01:32;17.10;67.30
7192;DHT22;3637;51.494;11.958;2022-09-16T16:04:38;17.10;67.50
7192;DHT22;3637;51.494;11.958;2022-09-16T16:07:41;17.20;67.70
7192;DHT22;3637;51.494;11.958;2022-09-16T16:11:07;17.20;67.30
7192;DHT22;3637;51.494;11.958;2022-09-16T16:14:09;17.10;68.10
7192;DHT22;3637;51.494;11.958;2022-09-16T16:17:16;17.10;67.00
7192;DHT22;3637;51.494;11.958;2022-09-16T16:20:20;17.10;65.70
7192;DHT22;3637;51.494;11.958;2022-09-16T16:23:22;17.00;66.00
7192;DHT22;3637;51.494;11.958;2022-09-16T16:26:24;17.00;65.70
7192;DHT22;3637;51.494;11.958;2022-09-16T16:29:25;17.10;66.50
7192;DHT22;3637;51.494;11.958;2022-09-16T16:32:27;16.90;66.20
7192;DHT22;3637;51.494;11.958;2022-09-16T16:35:31;16.90;66.70
7192;DHT22;3637;51.494;11.958;2022-09-16T16:38:33;16.90;66.60
7192;DHT22;3637;51.494;11.958;2022-09-16T16:41:35;16.70;66.80
7192;DHT22;3637;51.494;11.958;2022-09-16T16:44:36;16.80;67.80
7192;DHT22;3637;51.494;11.958;2022-09-16T16:47:38;16.60;67.60
7192;DHT22;3637;51.494;11.958;2022-09-16T16:50:41;16.60;67.00
7192;DHT22;3637;51.494;11.958;2022-09-16T16:53:46;16.50;66.80
7192;DHT22;3637;51.494;11.958;2022-09-16T16:56:49;16.50;67.90
7192;DHT22;3637;51.494;11.958;2022-09-16T16:59:50;16.40;67.50
7192;DHT22;3637;51.494;11.958;2022-09-16T17:02:52;16.30;68.30
7192;DHT22;3637;51.494;11.958;2022-09-16T17:05:55;16.30;67.70
7192;DHT22;3637;51.494;11.958;2022-09-16T17:08:57;16.30;68.70
7192;DHT22;3637;51.494;11.958;2022-09-16T17:11:59;16.20;68.40
7192;DHT22;3637;51.494;11.958;2022-09-16T17:15:04;16.10;67.60
7192;DHT22;3637;51.494;11.958;2022-09-16T17:18:06;16.10;67.10
7192;DHT22;3637;51.494;11.958;2022-09-16T17:21:10;16.10;67.80
7192;DHT22;3637;51.494;11.958;2022-09-16T17:24:13;15.90;68.10
7192;DHT22;3637;51.494;11.958;2022-09-16T17:27:15;16.00;67.90
7192;DHT22;3637;51.494;11.958;2022-09-16T17:30:19;15.90;67.40
7192;DHT22;3637;51.494;11.958;2022-09-16T17:33:20;15.90;67.00
7192;DHT22;3637;51.494;11.958;2022-09-16T17:36:24;15.70;67.00
7192;DHT22;3637;51.494;11.958;2022-09-16T17:39:25;15.70;66.00
7192;DHT22;3637;51.494;11.958;2022-09-16T17:42:27;15.60;65.20
7192;DHT22;3637;51.494;11.958;2022-09-16T17:45:31;15.50;65.40
7192;DHT22;3637;51.494;11.958;2022-09-16T17:48:32;15.40;66.10
7192;DHT22;3637;51.494;11.958;2022-09-16T17:51:37;15.40;66.30
7192;DHT22;3637;51.494;11.958;2022-09-16T17:54:38;15.40;66.90
7192;DHT22;3637;51.494;11.958;2022-09-16T17:57:41;15.30;67.00
7192;DHT22;3637;51.494;11.958;2022-09-16T18:00:43;15.20;67.80
7192;DHT22;3637;51.494;11.958;2022-09-16T18:03:47;15.20;68.30
7192;DHT22;3637;51.494;11.958;2022-09-16T18:06:50;15.20;69.60
7192;DHT22;3637;51.494;11.958;2022-09-16T18:09:52;15.10;69.40
7192;DHT22;3637;51.494;11.958;2022-09-16T18:12:53;15.10;70.40
7192;DHT22;3637;51.494;11.958;2022-09-16T18:16:01;15.10;70.10
7192;DHT22;3637;51.494;11.958;2022-09-16T18:19:04;15.10;70.40
7192;DHT22;3637;51.494;11.958;2022-09-16T18:22:07;15.10;70.50
7192;DHT22;3637;51.494;11.958;2022-09-16T18:25:08;15.00;71.40
7192;DHT22;3637;51.494;11.958;2022-09-16T18:28:10;15.00;71.80
7192;DHT22;3637;51.494;11.958;2022-09-16T18:31:14;15.00;73.10
7192;DHT22;3637;51.494;11.958;2022-09-16T18:34:16;14.90;73.30
7192;DHT22;3637;51.494;11.958;2022-09-16T18:37:19;15.00;74.50
7192;DHT22;3637;51.494;11.958;2022-09-16T18:40:21;14.80;74.60
7192;DHT22;3637;51.494;11.958;2022-09-16T18:43:23;14.70;75.60
7192;DHT22;3637;51.494;11.958;2022-09-16T18:46:26;14.70;76.50
7192;DHT22;3637;51.494;11.958;2022-09-16T18:49:28;14.70;76.90
7192;DHT22;3637;51.494;11.958;2022-09-16T18:52:31;14.70;77.20
7192;DHT22;3637;51.494;11.958;2022-09-16T18:55:33;14.70;77.70
7192;DHT22;3637;51.494;11.958;2022-09-16T18:58:35;14.80;78.60
7192;DHT22;3637;51.494;11.958;2022-09-16T19:01:38;14.60;79.70
7192;DHT22;3637;51.494;11.958;2022-09-16T19:04:41;14.60;80.80
7192;DHT22;3637;51.494;11.958;2022-09-16T19:07:44;14.50;80.50
7192;DHT22;3637;51.494;11.958;2022-09-16T19:10:46;14.60;81.00
7192;DHT22;3637;51.494;11.958;2022-09-16T19:13:48;14.60;81.00
7192;DHT22;3637;51.494;11.958;2022-09-16T19:16:51;14.60;81.20
7192;DHT22;3637;51.494;11.958;2022-09-16T19:19:53;14.50;81.50
7192;DHT22;3637;51.494;11.958;2022-09-16T19:22:56;14.60;81.20
7192;DHT22;3637;51.494;11.958;2022-09-16T19:26:02;14.40;81.70
7192;DHT22;3637;51.494;11.958;2022-09-16T19:29:05;14.40;81.50
7192;DHT22;3637;51.494;11.958;2022-09-16T19:32:07;14.30;82.00
7192;DHT22;3637;51.494;11.958;2022-09-16T19:35:09;14.20;82.10
7192;DHT22;3637;51.494;11.958;2022-09-16T19:38:12;14.20;82.90
7192;DHT22;3637;51.494;11.958;2022-09-16T19:41:15;14.30;82.20
7192;DHT22;3637;51.494;11.958;2022-09-16T19:44:17;14.30;81.80
7192;DHT22;3637;51.494;11.958;2022-09-16T19:47:19;14.20;82.10
7192;DHT22;3637;51.494;11.958;2022-09-16T19:50:21;14.10;81.90
7192;DHT22;3637;51.494;11.958;2022-09-16T19:53:25;14.00;82.00
7192;DHT22;3637;51.494;11.958;2022-09-16T19:56:28;14.10;82.10
7192;DHT22;3637;51.494;11.958;2022-09-16T19:59:30;14.10;82.20
7192;DHT22;3637;51.494;11.958;2022-09-16T20:02:32;14.00;81.50